Norfolk, NE (68701)

2:42 PM CDT on September 02, 2015 (GMT -0500)
West Central - Norfolk | | Change Station
CLOSE
Current Station
Personal Weather Station
Location: Norfolk, NE
Elevation: 1640 ft
Nearby Weather Stations

Elev 1640 ft 42.04 °N, 97.45 °W | Updated 1 second ago

Clear
Clear
87.6 °F
Feels Like 93 °F
N
4.4
Wind Variable Wind from ESE
Gusts 6.9 mph

Today
High -- | Low -- °F
--% Chance of Precip.
Yesterday
High -- | Low -- °F
Precip. -- in
6:56 AM 8:02 PM
Waning Gibbous, 78% visible
Pressure 29.82 in
Visibility 10.0 miles
Clouds Clear
Heat Index 93 °F
Dew Point 70 °F
Humidity 56%
Rainfall 0.00 in
Snow Depth Not available.
UV 9 out of 12
Pollen 10.10 out of 12
Air Quality Not available.
Flu Activity Not available.
METAR KOFK 021856Z AUTO 16011KT 10SM CLR 31/22 A2986 RMK AO2 SLP096 T03060217
Pressure 29.82 in
Visibility 10.0 miles
Clouds Clear
Heat Index 93 °F
Dew Point 70 °F
Humidity 56%
Rainfall 0.00 in
Snow Depth Not available.
UV 9 out of 12
Pollen 10.10 out of 12
Air Quality Not available.
Flu Activity Not available.
METAR KOFK 021856Z AUTO 16011KT 10SM CLR 31/22 A2986 RMK AO2 SLP096 T03060217

10-Day Weather Forecast

×

Almanac

Astronomy

Sep. 02, 2015 Rise Set
Actual Time
Civil Twilight
Nautical Twilight
Astronomical Twilight
Moon
Length of Visible Light
Length of Day
Tomorrow will be .
, % of the Moon is Illuminated

Today's Extremes

State Highs State Lows

Community

WunderPhotos

Upload Photos

1,851,801 photos uploaded!

WunderBlogs® & News

Nearby

Air Quality

  Air Quality AQ Index Pollutant
Not available.

Snow Depth

Station Depth Elevation

Earthquake Activity

City Distance Mag. Time & Date
Minimum magnitude displayed is 2.5.

Coastal Water Temperatures

Place Temperature

Stations

Nearby Weather Stations

Station Location Temp. Windchill Dew Point Humidity Wind Precip. Elev Updated Type